sensor_id;sensor_type;location;lat;lon;timestamp;temperature;humidity
18101;DHT22;9177;49.156;8.142;2022-07-22T00:00:14;26.00;98.60
18101;DHT22;9177;49.156;8.142;2022-07-22T00:02:42;26.00;98.60
18101;DHT22;9177;49.156;8.142;2022-07-22T00:05:09;26.10;98.70
18101;DHT22;9177;49.156;8.142;2022-07-22T00:07:37;26.10;98.70
18101;DHT22;9177;49.156;8.142;2022-07-22T00:10:05;26.00;98.60
18101;DHT22;9177;49.156;8.142;2022-07-22T00:12:34;26.00;98.70
18101;DHT22;9177;49.156;8.142;2022-07-22T00:15:01;26.00;98.70
18101;DHT22;9177;49.156;8.142;2022-07-22T00:17:28;26.00;98.70
18101;DHT22;9177;49.156;8.142;2022-07-22T00:19:55;26.00;98.70
18101;DHT22;9177;49.156;8.142;2022-07-22T00:22:22;26.00;98.70
18101;DHT22;9177;49.156;8.142;2022-07-22T00:24:49;26.10;98.70
18101;DHT22;9177;49.156;8.142;2022-07-22T00:27:16;26.10;98.70
18101;DHT22;9177;49.156;8.142;2022-07-22T00:29:44;26.00;98.70
18101;DHT22;9177;49.156;8.142;2022-07-22T00:32:11;26.00;98.70
18101;DHT22;9177;49.156;8.142;2022-07-22T00:34:38;26.00;98.70
18101;DHT22;9177;49.156;8.142;2022-07-22T00:37:05;26.00;98.70
18101;DHT22;9177;49.156;8.142;2022-07-22T00:39:33;26.00;98.80
18101;DHT22;9177;49.156;8.142;2022-07-22T00:42:00;26.00;98.80
18101;DHT22;9177;49.156;8.142;2022-07-22T00:44:27;26.00;98.80
18101;DHT22;9177;49.156;8.142;2022-07-22T00:46:55;26.00;98.80
18101;DHT22;9177;49.156;8.142;2022-07-22T00:49:22;26.00;98.80
18101;DHT22;9177;49.156;8.142;2022-07-22T00:51:49;26.00;98.80
18101;DHT22;9177;49.156;8.142;2022-07-22T00:54:16;26.00;98.80
18101;DHT22;9177;49.156;8.142;2022-07-22T00:56:43;26.00;98.80
18101;DHT22;9177;49.156;8.142;2022-07-22T00:59:11;26.00;98.80
18101;DHT22;9177;49.156;8.142;2022-07-22T01:01:38;26.00;98.80
18101;DHT22;9177;49.156;8.142;2022-07-22T01:04:07;26.00;98.80
18101;DHT22;9177;49.156;8.142;2022-07-22T01:06:34;26.00;98.80
18101;DHT22;9177;49.156;8.142;2022-07-22T01:09:02;26.00;98.80
18101;DHT22;9177;49.156;8.142;2022-07-22T01:11:30;26.00;98.80
18101;DHT22;9177;49.156;8.142;2022-07-22T01:13:57;26.00;98.80
18101;DHT22;9177;49.156;8.142;2022-07-22T01:16:24;26.00;98.80
18101;DHT22;9177;49.156;8.142;2022-07-22T01:18:51;26.00;98.80
18101;DHT22;9177;49.156;8.142;2022-07-22T01:21:19;26.00;98.80
18101;DHT22;9177;49.156;8.142;2022-07-22T01:23:46;26.00;98.80
18101;DHT22;9177;49.156;8.142;2022-07-22T01:26:14;26.00;98.80
18101;DHT22;9177;49.156;8.142;2022-07-22T01:28:41;26.00;98.80
18101;DHT22;9177;49.156;8.142;2022-07-22T01:31:09;26.00;98.80
18101;DHT22;9177;49.156;8.142;2022-07-22T01:33:36;26.00;98.80
18101;DHT22;9177;49.156;8.142;2022-07-22T01:36:04;26.00;98.80
18101;DHT22;9177;49.156;8.142;2022-07-22T01:38:33;26.00;98.80
18101;DHT22;9177;49.156;8.142;2022-07-22T01:41:00;26.00;98.80
18101;DHT22;9177;49.156;8.142;2022-07-22T01:43:27;26.00;98.80
18101;DHT22;9177;49.156;8.142;2022-07-22T01:45:54;26.00;98.80
18101;DHT22;9177;49.156;8.142;2022-07-22T01:48:22;26.00;98.90
18101;DHT22;9177;49.156;8.142;2022-07-22T01:50:50;26.00;98.90
18101;DHT22;9177;49.156;8.142;2022-07-22T01:53:17;26.00;98.90
18101;DHT22;9177;49.156;8.142;2022-07-22T01:55:46;25.90;98.80
18101;DHT22;9177;49.156;8.142;2022-07-22T01:58:13;25.90;98.80
18101;DHT22;9177;49.156;8.142;2022-07-22T02:00:41;25.90;98.80
18101;DHT22;9177;49.156;8.142;2022-07-22T02:03:08;26.00;98.90
18101;DHT22;9177;49.156;8.142;2022-07-22T02:05:36;26.00;98.90
18101;DHT22;9177;49.156;8.142;2022-07-22T02:08:04;26.00;98.90
18101;DHT22;9177;49.156;8.142;2022-07-22T02:10:32;26.00;98.90
18101;DHT22;9177;49.156;8.142;2022-07-22T02:13:00;25.90;98.90
18101;DHT22;9177;49.156;8.142;2022-07-22T02:15:28;25.90;98.90
18101;DHT22;9177;49.156;8.142;2022-07-22T02:17:55;25.90;98.90
18101;DHT22;9177;49.156;8.142;2022-07-22T02:20:22;25.90;98.90
18101;DHT22;9177;49.156;8.142;2022-07-22T02:22:49;25.90;98.90
18101;DHT22;9177;49.156;8.142;2022-07-22T02:25:16;25.90;98.90
18101;DHT22;9177;49.156;8.142;2022-07-22T02:27:43;25.90;98.90
18101;DHT22;9177;49.156;8.142;2022-07-22T02:30:12;25.90;98.90
18101;DHT22;9177;49.156;8.142;2022-07-22T02:32:38;25.90;98.90
18101;DHT22;9177;49.156;8.142;2022-07-22T02:35:06;25.90;98.90
18101;DHT22;9177;49.156;8.142;2022-07-22T02:37:33;25.90;98.90
18101;DHT22;9177;49.156;8.142;2022-07-22T02:40:03;25.90;99.30
18101;DHT22;9177;49.156;8.142;2022-07-22T02:42:30;25.90;98.90
18101;DHT22;9177;49.156;8.142;2022-07-22T02:44:57;25.90;98.90
18101;DHT22;9177;49.156;8.142;2022-07-22T02:47:25;25.90;98.90
18101;DHT22;9177;49.156;8.142;2022-07-22T02:49:52;25.90;98.90
18101;DHT22;9177;49.156;8.142;2022-07-22T02:52:19;25.90;98.90
18101;DHT22;9177;49.156;8.142;2022-07-22T02:54:46;25.90;98.90
18101;DHT22;9177;49.156;8.142;2022-07-22T02:57:13;25.90;98.90
18101;DHT22;9177;49.156;8.142;2022-07-22T02:59:43;25.90;98.90
18101;DHT22;9177;49.156;8.142;2022-07-22T03:02:09;25.90;98.90
18101;DHT22;9177;49.156;8.142;2022-07-22T03:04:38;25.90;99.00
18101;DHT22;9177;49.156;8.142;2022-07-22T03:07:05;25.90;98.90
18101;DHT22;9177;49.156;8.142;2022-07-22T03:09:32;25.90;98.90
18101;DHT22;9177;49.156;8.142;2022-07-22T03:11:58;25.90;99.00
18101;DHT22;9177;49.156;8.142;2022-07-22T03:14:29;25.90;98.90
18101;DHT22;9177;49.156;8.142;2022-07-22T03:16:55;25.90;99.00
18101;DHT22;9177;49.156;8.142;2022-07-22T03:19:22;25.90;99.00
18101;DHT22;9177;49.156;8.142;2022-07-22T03:21:50;25.90;99.00
18101;DHT22;9177;49.156;8.142;2022-07-22T03:24:17;25.90;99.00
18101;DHT22;9177;49.156;8.142;2022-07-22T03:26:44;25.90;99.00
18101;DHT22;9177;49.156;8.142;2022-07-22T03:29:11;25.90;99.00
18101;DHT22;9177;49.156;8.142;2022-07-22T03:31:38;25.90;99.00
18101;DHT22;9177;49.156;8.142;2022-07-22T03:34:05;25.90;99.00
18101;DHT22;9177;49.156;8.142;2022-07-22T03:36:32;25.80;99.30
18101;DHT22;9177;49.156;8.142;2022-07-22T03:39:00;25.90;99.00
18101;DHT22;9177;49.156;8.142;2022-07-22T03:41:27;25.80;99.00
18101;DHT22;9177;49.156;8.142;2022-07-22T03:43:54;25.80;99.00
18101;DHT22;9177;49.156;8.142;2022-07-22T03:46:20;25.90;99.00
18101;DHT22;9177;49.156;8.142;2022-07-22T03:48:47;25.80;99.00
18101;DHT22;9177;49.156;8.142;2022-07-22T03:51:14;25.90;99.40
18101;DHT22;9177;49.156;8.142;2022-07-22T03:53:41;25.90;99.00
18101;DHT22;9177;49.156;8.142;2022-07-22T03:56:09;25.80;99.00
18101;DHT22;9177;49.156;8.142;2022-07-22T03:58:37;25.80;99.00
18101;DHT22;9177;49.156;8.142;2022-07-22T04:01:04;25.80;99.00
18101;DHT22;9177;49.156;8.142;2022-07-22T04:03:31;25.80;99.00
18101;DHT22;9177;49.156;8.142;2022-07-22T04:05:58;25.80;99.00
18101;DHT22;9177;49.156;8.142;2022-07-22T04:08:25;25.90;99.00
18101;DHT22;9177;49.156;8.142;2022-07-22T04:10:52;25.90;99.00
18101;DHT22;9177;49.156;8.142;2022-07-22T04:13:21;25.80;99.00
18101;DHT22;9177;49.156;8.142;2022-07-22T04:15:47;25.80;99.00
18101;DHT22;9177;49.156;8.142;2022-07-22T04:18:14;25.90;99.00
18101;DHT22;9177;49.156;8.142;2022-07-22T04:20:45;25.80;99.00
18101;DHT22;9177;49.156;8.142;2022-07-22T04:23:12;25.90;99.00
18101;DHT22;9177;49.156;8.142;2022-07-22T04:25:39;25.90;99.00
18101;DHT22;9177;49.156;8.142;2022-07-22T04:28:06;25.80;99.00
18101;DHT22;9177;49.156;8.142;2022-07-22T04:30:34;25.80;98.90
18101;DHT22;9177;49.156;8.142;2022-07-22T04:33:01;25.80;98.90
18101;DHT22;9177;49.156;8.142;2022-07-22T04:35:28;25.80;98.90
18101;DHT22;9177;49.156;8.142;2022-07-22T04:37:55;25.80;98.90
18101;DHT22;9177;49.156;8.142;2022-07-22T04:40:22;25.80;98.90
18101;DHT22;9177;49.156;8.142;2022-07-22T04:42:49;25.80;98.90
18101;DHT22;9177;49.156;8.142;2022-07-22T04:45:16;25.80;98.90
18101;DHT22;9177;49.156;8.142;2022-07-22T04:47:45;25.80;98.90
18101;DHT22;9177;49.156;8.142;2022-07-22T04:50:12;25.80;98.90
18101;DHT22;9177;49.156;8.142;2022-07-22T04:52:38;25.80;98.90
18101;DHT22;9177;49.156;8.142;2022-07-22T04:55:06;25.80;98.90
18101;DHT22;9177;49.156;8.142;2022-07-22T04:57:33;25.80;98.90
18101;DHT22;9177;49.156;8.142;2022-07-22T05:00:00;25.80;99.20
18101;DHT22;9177;49.156;8.142;2022-07-22T05:02:27;25.80;98.90
18101;DHT22;9177;49.156;8.142;2022-07-22T05:04:55;25.80;98.90
18101;DHT22;9177;49.156;8.142;2022-07-22T05:07:23;25.80;98.90
18101;DHT22;9177;49.156;8.142;2022-07-22T05:09:50;25.80;98.90
18101;DHT22;9177;49.156;8.142;2022-07-22T05:12:16;25.80;98.90
18101;DHT22;9177;49.156;8.142;2022-07-22T05:14:43;25.80;98.90
18101;DHT22;9177;49.156;8.142;2022-07-22T05:17:11;25.80;98.90
18101;DHT22;9177;49.156;8.142;2022-07-22T05:19:38;25.80;98.90
18101;DHT22;9177;49.156;8.142;2022-07-22T05:22:07;25.80;98.90
18101;DHT22;9177;49.156;8.142;2022-07-22T05:24:34;25.80;98.80
18101;DHT22;9177;49.156;8.142;2022-07-22T05:27:01;25.80;98.80
18101;DHT22;9177;49.156;8.142;2022-07-22T05:29:28;25.80;98.80
18101;DHT22;9177;49.156;8.142;2022-07-22T05:31:55;25.80;98.80
18101;DHT22;9177;49.156;8.142;2022-07-22T05:34:22;25.80;98.80
18101;DHT22;9177;49.156;8.142;2022-07-22T05:36:49;25.80;98.80
18101;DHT22;9177;49.156;8.142;2022-07-22T05:39:18;25.80;98.80
18101;DHT22;9177;49.156;8.142;2022-07-22T05:41:45;25.80;99.00
18101;DHT22;9177;49.156;8.142;2022-07-22T05:44:12;25.80;98.80
18101;DHT22;9177;49.156;8.142;2022-07-22T05:46:38;25.80;98.80
18101;DHT22;9177;49.156;8.142;2022-07-22T05:49:05;25.80;98.80
18101;DHT22;9177;49.156;8.142;2022-07-22T05:51:33;25.80;98.80
18101;DHT22;9177;49.156;8.142;2022-07-22T05:54:01;25.80;98.80
18101;DHT22;9177;49.156;8.142;2022-07-22T05:56:30;25.80;98.80
18101;DHT22;9177;49.156;8.142;2022-07-22T05:58:58;25.80;98.80
18101;DHT22;9177;49.156;8.142;2022-07-22T06:01:25;25.80;99.20
18101;DHT22;9177;49.156;8.142;2022-07-22T06:03:52;25.80;99.20
18101;DHT22;9177;49.156;8.142;2022-07-22T06:06:19;25.80;98.80
18101;DHT22;9177;49.156;8.142;2022-07-22T06:08:46;25.80;98.80
18101;DHT22;9177;49.156;8.142;2022-07-22T06:11:13;25.80;98.80
18101;DHT22;9177;49.156;8.142;2022-07-22T06:13:41;25.80;98.80
18101;DHT22;9177;49.156;8.142;2022-07-22T06:16:09;25.80;98.80
18101;DHT22;9177;49.156;8.142;2022-07-22T06:18:36;25.80;98.80
18101;DHT22;9177;49.156;8.142;2022-07-22T06:21:04;25.80;98.80
18101;DHT22;9177;49.156;8.142;2022-07-22T06:23:33;25.80;98.80
18101;DHT22;9177;49.156;8.142;2022-07-22T06:26:00;25.80;98.80
18101;DHT22;9177;49.156;8.142;2022-07-22T06:28:27;25.80;98.80
18101;DHT22;9177;49.156;8.142;2022-07-22T06:30:56;25.80;98.80
18101;DHT22;9177;49.156;8.142;2022-07-22T06:33:22;25.80;98.80
18101;DHT22;9177;49.156;8.142;2022-07-22T06:35:49;25.80;98.80
18101;DHT22;9177;49.156;8.142;2022-07-22T06:38:16;25.80;98.80
18101;DHT22;9177;49.156;8.142;2022-07-22T06:40:43;25.80;98.80
18101;DHT22;9177;49.156;8.142;2022-07-22T06:43:10;25.80;98.80
18101;DHT22;9177;49.156;8.142;2022-07-22T06:45:37;25.80;98.80
18101;DHT22;9177;49.156;8.142;2022-07-22T06:48:05;25.80;98.80
18101;DHT22;9177;49.156;8.142;2022-07-22T06:50:32;25.80;98.80
18101;DHT22;9177;49.156;8.142;2022-07-22T06:52:59;25.80;98.80
18101;DHT22;9177;49.156;8.142;2022-07-22T06:55:26;25.80;98.70
18101;DHT22;9177;49.156;8.142;2022-07-22T06:57:53;25.80;98.70
18101;DHT22;9177;49.156;8.142;2022-07-22T07:00:20;25.80;98.70
18101;DHT22;9177;49.156;8.142;2022-07-22T07:02:47;25.80;98.70
18101;DHT22;9177;49.156;8.142;2022-07-22T07:05:15;25.80;98.70
18101;DHT22;9177;49.156;8.142;2022-07-22T07:07:42;25.80;98.70
18101;DHT22;9177;49.156;8.142;2022-07-22T07:10:09;25.80;98.70
18101;DHT22;9177;49.156;8.142;2022-07-22T07:12:38;25.80;98.60
18101;DHT22;9177;49.156;8.142;2022-07-22T07:15:06;25.90;98.70
18101;DHT22;9177;49.156;8.142;2022-07-22T07:17:33;25.80;98.70
18101;DHT22;9177;49.156;8.142;2022-07-22T07:20:00;25.80;98.70
18101;DHT22;9177;49.156;8.142;2022-07-22T07:22:28;25.90;98.70
18101;DHT22;9177;49.156;8.142;2022-07-22T07:24:55;25.80;98.60
18101;DHT22;9177;49.156;8.142;2022-07-22T07:27:22;25.80;98.60
18101;DHT22;9177;49.156;8.142;2022-07-22T07:29:49;25.80;98.60
18101;DHT22;9177;49.156;8.142;2022-07-22T07:32:16;25.90;98.70
18101;DHT22;9177;49.156;8.142;2022-07-22T07:34:43;25.90;98.70
18101;DHT22;9177;49.156;8.142;2022-07-22T07:37:10;25.90;98.60
18101;DHT22;9177;49.156;8.142;2022-07-22T07:39:39;26.00;98.60
18101;DHT22;9177;49.156;8.142;2022-07-22T07:42:06;26.00;98.60
18101;DHT22;9177;49.156;8.142;2022-07-22T07:44:32;26.00;98.60
18101;DHT22;9177;49.156;8.142;2022-07-22T07:46:59;26.00;98.50
18101;DHT22;9177;49.156;8.142;2022-07-22T07:49:29;26.00;98.50
18101;DHT22;9177;49.156;8.142;2022-07-22T07:51:56;26.00;98.40
18101;DHT22;9177;49.156;8.142;2022-07-22T07:54:23;26.00;98.50
18101;DHT22;9177;49.156;8.142;2022-07-22T07:56:51;26.10;98.40
18101;DHT22;9177;49.156;8.142;2022-07-22T07:59:18;26.10;98.40
18101;DHT22;9177;49.156;8.142;2022-07-22T08:01:45;26.10;98.40
18101;DHT22;9177;49.156;8.142;2022-07-22T08:04:13;26.10;98.30
18101;DHT22;9177;49.156;8.142;2022-07-22T08:06:40;26.10;98.30
18101;DHT22;9177;49.156;8.142;2022-07-22T08:09:07;26.10;98.30
18101;DHT22;9177;49.156;8.142;2022-07-22T08:11:33;26.20;98.30
18101;DHT22;9177;49.156;8.142;2022-07-22T08:14:02;26.20;98.30
18101;DHT22;9177;49.156;8.142;2022-07-22T08:16:29;26.20;98.30
18101;DHT22;9177;49.156;8.142;2022-07-22T08:18:56;26.20;98.20
18101;DHT22;9177;49.156;8.142;2022-07-22T08:21:23;26.20;98.20
18101;DHT22;9177;49.156;8.142;2022-07-22T08:23:51;26.30;98.20
18101;DHT22;9177;49.156;8.142;2022-07-22T08:26:18;26.30;98.20
18101;DHT22;9177;49.156;8.142;2022-07-22T08:28:44;26.20;98.10
18101;DHT22;9177;49.156;8.142;2022-07-22T08:31:13;26.30;98.20
18101;DHT22;9177;49.156;8.142;2022-07-22T08:33:40;26.30;98.20
18101;DHT22;9177;49.156;8.142;2022-07-22T08:36:08;26.30;98.20
18101;DHT22;9177;49.156;8.142;2022-07-22T08:38:35;26.30;98.10
18101;DHT22;9177;49.156;8.142;2022-07-22T08:41:03;26.30;98.10
18101;DHT22;9177;49.156;8.142;2022-07-22T08:43:30;26.30;98.10
18101;DHT22;9177;49.156;8.142;2022-07-22T08:45:57;26.30;98.10
18101;DHT22;9177;49.156;8.142;2022-07-22T08:48:26;26.30;98.10
18101;DHT22;9177;49.156;8.142;2022-07-22T08:50:53;26.30;98.10
18101;DHT22;9177;49.156;8.142;2022-07-22T08:53:20;26.30;98.00
18101;DHT22;9177;49.156;8.142;2022-07-22T08:55:48;26.40;98.10
18101;DHT22;9177;49.156;8.142;2022-07-22T08:58:16;26.40;98.10
18101;DHT22;9177;49.156;8.142;2022-07-22T09:00:44;26.40;98.10
18101;DHT22;9177;49.156;8.142;2022-07-22T09:03:19;26.40;98.10
18101;DHT22;9177;49.156;8.142;2022-07-22T09:05:50;26.40;98.00
18101;DHT22;9177;49.156;8.142;2022-07-22T09:08:17;26.40;98.00
18101;DHT22;9177;49.156;8.142;2022-07-22T09:10:44;26.40;98.00
18101;DHT22;9177;49.156;8.142;2022-07-22T09:13:15;26.40;98.00
18101;DHT22;9177;49.156;8.142;2022-07-22T09:15:48;26.40;98.00
18101;DHT22;9177;49.156;8.142;2022-07-22T09:18:15;26.40;98.00
18101;DHT22;9177;49.156;8.142;2022-07-22T09:20:43;26.40;98.00
18101;DHT22;9177;49.156;8.142;2022-07-22T09:23:13;26.40;98.00
18101;DHT22;9177;49.156;8.142;2022-07-22T09:25:41;26.50;98.00
18101;DHT22;9177;49.156;8.142;2022-07-22T09:28:15;26.40;98.00
18101;DHT22;9177;49.156;8.142;2022-07-22T09:30:48;26.40;98.00
18101;DHT22;9177;49.156;8.142;2022-07-22T09:33:17;26.40;98.00
18101;DHT22;9177;49.156;8.142;2022-07-22T09:35:45;26.40;98.00
18101;DHT22;9177;49.156;8.142;2022-07-22T09:38:15;26.50;98.00
18101;DHT22;9177;49.156;8.142;2022-07-22T09:40:44;26.50;98.00
18101;DHT22;9177;49.156;8.142;2022-07-22T09:43:17;26.50;98.00
18101;DHT22;9177;49.156;8.142;2022-07-22T09:45:46;26.50;98.00
18101;DHT22;9177;49.156;8.142;2022-07-22T09:48:16;26.50;98.00
18101;DHT22;9177;49.156;8.142;2022-07-22T09:50:43;26.50;98.00
18101;DHT22;9177;49.156;8.142;2022-07-22T09:53:11;26.50;98.00
18101;DHT22;9177;49.156;8.142;2022-07-22T09:55:40;26.50;98.00
18101;DHT22;9177;49.156;8.142;2022-07-22T09:58:06;26.50;97.90
18101;DHT22;9177;49.156;8.142;2022-07-22T10:00:35;26.50;97.90
18101;DHT22;9177;49.156;8.142;2022-07-22T10:03:06;26.50;97.90
18101;DHT22;9177;49.156;8.142;2022-07-22T10:05:35;26.60;97.90
18101;DHT22;9177;49.156;8.142;2022-07-22T10:08:04;26.50;97.90
18101;DHT22;9177;49.156;8.142;2022-07-22T10:10:34;26.60;97.90
18101;DHT22;9177;49.156;8.142;2022-07-22T10:13:04;26.60;97.90
18101;DHT22;9177;49.156;8.142;2022-07-22T10:15:32;26.60;97.90
18101;DHT22;9177;49.156;8.142;2022-07-22T10:18:00;26.50;97.90
18101;DHT22;9177;49.156;8.142;2022-07-22T10:20:30;26.60;97.90
18101;DHT22;9177;49.156;8.142;2022-07-22T10:22:59;26.50;97.90
18101;DHT22;9177;49.156;8.142;2022-07-22T10:25:27;26.60;97.90
18101;DHT22;9177;49.156;8.142;2022-07-22T10:27:58;26.60;97.90
18101;DHT22;9177;49.156;8.142;2022-07-22T10:30:28;26.60;97.90
18101;DHT22;9177;49.156;8.142;2022-07-22T10:33:12;26.60;97.90
18101;DHT22;9177;49.156;8.142;2022-07-22T10:35:53;26.60;97.90
18101;DHT22;9177;49.156;8.142;2022-07-22T10:38:22;26.60;97.90
18101;DHT22;9177;49.156;8.142;2022-07-22T10:40:51;26.60;97.90
18101;DHT22;9177;49.156;8.142;2022-07-22T10:43:20;26.60;97.90
18101;DHT22;9177;49.156;8.142;2022-07-22T10:45:51;26.60;97.90
18101;DHT22;9177;49.156;8.142;2022-07-22T10:48:24;26.60;97.90
18101;DHT22;9177;49.156;8.142;2022-07-22T10:51:07;26.60;97.90
18101;DHT22;9177;49.156;8.142;2022-07-22T10:53:52;26.60;97.90
18101;DHT22;9177;49.156;8.142;2022-07-22T10:56:24;26.60;97.90
18101;DHT22;9177;49.156;8.142;2022-07-22T10:58:55;26.60;97.90
18101;DHT22;9177;49.156;8.142;2022-07-22T11:01:26;26.60;97.90
18101;DHT22;9177;49.156;8.142;2022-07-22T11:03:55;26.60;97.90
18101;DHT22;9177;49.156;8.142;2022-07-22T11:06:25;26.60;97.90
18101;DHT22;9177;49.156;8.142;2022-07-22T11:08:54;26.60;97.90
18101;DHT22;9177;49.156;8.142;2022-07-22T11:11:40;26.60;97.90
18101;DHT22;9177;49.156;8.142;2022-07-22T11:14:15;26.70;97.90
18101;DHT22;9177;49.156;8.142;2022-07-22T11:16:45;26.60;97.90
18101;DHT22;9177;49.156;8.142;2022-07-22T11:19:12;26.70;97.90
18101;DHT22;9177;49.156;8.142;2022-07-22T11:21:39;26.70;97.90
18101;DHT22;9177;49.156;8.142;2022-07-22T11:24:07;26.60;97.80
18101;DHT22;9177;49.156;8.142;2022-07-22T11:26:39;26.70;97.80
18101;DHT22;9177;49.156;8.142;2022-07-22T11:29:06;26.70;97.80
18101;DHT22;9177;49.156;8.142;2022-07-22T11:31:34;26.70;97.80
18101;DHT22;9177;49.156;8.142;2022-07-22T11:34:07;26.70;97.80
18101;DHT22;9177;49.156;8.142;2022-07-22T11:36:37;26.70;97.80
18101;DHT22;9177;49.156;8.142;2022-07-22T11:39:05;26.70;98.00
18101;DHT22;9177;49.156;8.142;2022-07-22T11:41:33;26.70;97.80
18101;DHT22;9177;49.156;8.142;2022-07-22T11:44:03;26.70;97.80
18101;DHT22;9177;49.156;8.142;2022-07-22T11:46:36;26.70;97.80
18101;DHT22;9177;49.156;8.142;2022-07-22T11:49:03;26.70;97.80
18101;DHT22;9177;49.156;8.142;2022-07-22T11:51:33;26.70;97.80
18101;DHT22;9177;49.156;8.142;2022-07-22T11:54:00;26.70;97.80
18101;DHT22;9177;49.156;8.142;2022-07-22T11:56:28;26.70;97.90
18101;DHT22;9177;49.156;8.142;2022-07-22T11:59:00;26.70;97.90
18101;DHT22;9177;49.156;8.142;2022-07-22T12:01:31;26.80;98.10
18101;DHT22;9177;49.156;8.142;2022-07-22T12:04:00;26.80;98.20
18101;DHT22;9177;49.156;8.142;2022-07-22T12:06:35;26.80;98.20
18101;DHT22;9177;49.156;8.142;2022-07-22T12:09:05;26.80;98.20
18101;DHT22;9177;49.156;8.142;2022-07-22T12:11:33;26.90;98.20
18101;DHT22;9177;49.156;8.142;2022-07-22T12:14:06;26.90;98.20
18101;DHT22;9177;49.156;8.142;2022-07-22T12:16:34;26.90;98.20
18101;DHT22;9177;49.156;8.142;2022-07-22T12:19:03;26.90;98.20
18101;DHT22;9177;49.156;8.142;2022-07-22T12:21:34;26.90;98.10
18101;DHT22;9177;49.156;8.142;2022-07-22T12:24:03;27.00;98.60
18101;DHT22;9177;49.156;8.142;2022-07-22T12:26:40;27.00;98.20
18101;DHT22;9177;49.156;8.142;2022-07-22T12:29:22;27.00;98.10
18101;DHT22;9177;49.156;8.142;2022-07-22T12:31:51;27.00;98.10
18101;DHT22;9177;49.156;8.142;2022-07-22T12:34:33;27.10;98.10
18101;DHT22;9177;49.156;8.142;2022-07-22T12:37:12;27.10;98.00
18101;DHT22;9177;49.156;8.142;2022-07-22T12:39:40;27.10;98.00
18101;DHT22;9177;49.156;8.142;2022-07-22T12:42:18;27.10;98.00
18101;DHT22;9177;49.156;8.142;2022-07-22T12:44:53;27.10;98.00
18101;DHT22;9177;49.156;8.142;2022-07-22T12:47:38;27.10;97.90
18101;DHT22;9177;49.156;8.142;2022-07-22T12:50:22;27.20;98.00
18101;DHT22;9177;49.156;8.142;2022-07-22T12:52:52;27.20;98.00
18101;DHT22;9177;49.156;8.142;2022-07-22T12:55:20;27.20;98.00
18101;DHT22;9177;49.156;8.142;2022-07-22T12:57:47;27.20;98.00
18101;DHT22;9177;49.156;8.142;2022-07-22T13:00:18;27.20;97.90
18101;DHT22;9177;49.156;8.142;2022-07-22T13:02:45;27.20;97.90
18101;DHT22;9177;49.156;8.142;2022-07-22T13:05:12;27.30;98.00
18101;DHT22;9177;49.156;8.142;2022-07-22T13:07:40;27.30;98.00
18101;DHT22;9177;49.156;8.142;2022-07-22T13:10:09;27.30;97.90
18101;DHT22;9177;49.156;8.142;2022-07-22T13:12:36;27.30;98.00
18101;DHT22;9177;49.156;8.142;2022-07-22T13:15:04;27.30;97.90
18101;DHT22;9177;49.156;8.142;2022-07-22T13:17:32;27.30;97.90
18101;DHT22;9177;49.156;8.142;2022-07-22T13:19:59;27.30;97.90
18101;DHT22;9177;49.156;8.142;2022-07-22T13:22:26;27.40;97.90
18101;DHT22;9177;49.156;8.142;2022-07-22T13:24:53;27.40;98.20
18101;DHT22;9177;49.156;8.142;2022-07-22T13:27:21;27.40;97.80
18101;DHT22;9177;49.156;8.142;2022-07-22T13:29:48;27.40;97.80
18101;DHT22;9177;49.156;8.142;2022-07-22T13:32:15;27.40;98.20
18101;DHT22;9177;49.156;8.142;2022-07-22T13:34:42;27.50;97.80
18101;DHT22;9177;49.156;8.142;2022-07-22T13:37:09;27.50;97.80
18101;DHT22;9177;49.156;8.142;2022-07-22T13:39:36;27.50;97.80
18101;DHT22;9177;49.156;8.142;2022-07-22T13:42:03;27.50;97.70
18101;DHT22;9177;49.156;8.142;2022-07-22T13:44:32;27.50;97.70
18101;DHT22;9177;49.156;8.142;2022-07-22T13:47:01;27.60;97.80
18101;DHT22;9177;49.156;8.142;2022-07-22T13:49:28;27.50;97.70
18101;DHT22;9177;49.156;8.142;2022-07-22T13:51:54;27.50;97.70
18101;DHT22;9177;49.156;8.142;2022-07-22T13:54:21;27.50;97.70
18101;DHT22;9177;49.156;8.142;2022-07-22T13:56:48;27.50;97.70
18101;DHT22;9177;49.156;8.142;2022-07-22T13:59:16;27.50;97.70
18101;DHT22;9177;49.156;8.142;2022-07-22T14:01:44;27.50;97.70
18101;DHT22;9177;49.156;8.142;2022-07-22T14:04:11;27.50;97.70
18101;DHT22;9177;49.156;8.142;2022-07-22T14:06:38;27.50;97.70
18101;DHT22;9177;49.156;8.142;2022-07-22T14:09:05;27.50;97.70
18101;DHT22;9177;49.156;8.142;2022-07-22T14:11:32;27.50;97.70
18101;DHT22;9177;49.156;8.142;2022-07-22T14:13:59;27.50;97.70
18101;DHT22;9177;49.156;8.142;2022-07-22T14:16:26;27.50;97.70
18101;DHT22;9177;49.156;8.142;2022-07-22T14:19:06;27.50;97.70
18101;DHT22;9177;49.156;8.142;2022-07-22T14:21:33;27.50;97.70
18101;DHT22;9177;49.156;8.142;2022-07-22T14:24:01;27.50;97.80
18101;DHT22;9177;49.156;8.142;2022-07-22T14:26:28;27.40;97.80
18101;DHT22;9177;49.156;8.142;2022-07-22T14:28:56;27.40;97.80
18101;DHT22;9177;49.156;8.142;2022-07-22T14:31:22;27.40;97.80
18101;DHT22;9177;49.156;8.142;2022-07-22T14:33:50;27.40;97.80
18101;DHT22;9177;49.156;8.142;2022-07-22T14:36:18;27.40;97.80
18101;DHT22;9177;49.156;8.142;2022-07-22T14:38:45;27.40;97.90
18101;DHT22;9177;49.156;8.142;2022-07-22T14:41:11;27.40;97.90
18101;DHT22;9177;49.156;8.142;2022-07-22T14:43:39;27.30;97.90
18101;DHT22;9177;49.156;8.142;2022-07-22T14:46:06;27.30;97.90
18101;DHT22;9177;49.156;8.142;2022-07-22T14:48:35;27.30;98.00
18101;DHT22;9177;49.156;8.142;2022-07-22T14:51:03;27.30;97.90
18101;DHT22;9177;49.156;8.142;2022-07-22T14:53:31;27.30;98.00
18101;DHT22;9177;49.156;8.142;2022-07-22T14:55:58;27.30;97.90
18101;DHT22;9177;49.156;8.142;2022-07-22T14:58:26;27.30;97.90
18101;DHT22;9177;49.156;8.142;2022-07-22T15:00:53;27.30;98.00
18101;DHT22;9177;49.156;8.142;2022-07-22T15:03:20;27.30;98.00
18101;DHT22;9177;49.156;8.142;2022-07-22T15:05:47;27.30;98.00
18101;DHT22;9177;49.156;8.142;2022-07-22T15:08:15;27.30;98.00
18101;DHT22;9177;49.156;8.142;2022-07-22T15:10:45;27.30;98.00
18101;DHT22;9177;49.156;8.142;2022-07-22T15:13:12;27.20;97.90
18101;DHT22;9177;49.156;8.142;2022-07-22T15:15:39;27.20;98.00
18101;DHT22;9177;49.156;8.142;2022-07-22T15:18:06;27.20;98.00
18101;DHT22;9177;49.156;8.142;2022-07-22T15:20:33;27.20;97.90
18101;DHT22;9177;49.156;8.142;2022-07-22T15:23:00;27.20;97.90
18101;DHT22;9177;49.156;8.142;2022-07-22T15:25:27;27.20;97.90
18101;DHT22;9177;49.156;8.142;2022-07-22T15:27:56;27.20;97.90
18101;DHT22;9177;49.156;8.142;2022-07-22T15:30:24;27.20;97.90
18101;DHT22;9177;49.156;8.142;2022-07-22T15:32:50;27.20;97.90
18101;DHT22;9177;49.156;8.142;2022-07-22T15:35:17;27.20;97.90
18101;DHT22;9177;49.156;8.142;2022-07-22T15:37:44;27.20;97.80
18101;DHT22;9177;49.156;8.142;2022-07-22T15:40:11;27.20;97.80
18101;DHT22;9177;49.156;8.142;2022-07-22T15:42:39;27.20;97.80
18101;DHT22;9177;49.156;8.142;2022-07-22T15:45:09;27.20;97.80
18101;DHT22;9177;49.156;8.142;2022-07-22T15:47:40;27.20;97.80
18101;DHT22;9177;49.156;8.142;2022-07-22T15:50:08;27.20;97.80